Terminal Aerodrome Forecast
Issued by NWS North Platte, NE

Home | Current Version | Previous Version | Text Only | Print | Product List | Glossary On
Versions: 1 2 3 4 5 6 7 8 9 10 11 12 13 14 15 16 17 18 19 20 21 22 23
000
FTUS43 KLBF 271732
TAFLBF
TAF
KLBF 271732Z 2718/2818 01012KT 6SM -TSRA BKN030 OVC050CB
     FM272000 01010KT P6SM -TSRA OVC015CB
     FM280200 33010KT 4SM -SHRA BR OVC015
     FM280800 07004KT P6SM SCT040
     FM281300 32005KT P6SM SCT060=

USA.gov is the U.S. government's official web portal to all federal, state and local government web resources and services.